Decatur, Illinois
Current Conditions -  °F | °C
As of 2:54 AM on Wednesday 22 Oct 2014 (Local Time) from KDEC Reporting Station
Clear Clear  
Wind Chill: 36°   Ceiling: Unl
Heat Index: 39°   Visibility: 10mi
Dew Point: 36°   Wind: 5mph
Humidity: 89%   Direction: 50°NE
Pressure: 30.26"   Gusts: NA
Location:  39.85°N, 88.95°W
Report Text: KDEC 220754Z AUTO 05004KT 10SM CLR 04/02 A3026 RMK AO2 SLP247 T00390022 TSNO
Loading
Personal Weather Stations






























Interactive Weather Map
Tropical Storm Tracking
New forecast layout! Learn more

10-Day Weather Forecast

Advertisements
Track Severe Weather on mobile